sensor_id;sensor_type;location;lat;lon;timestamp;P1;durP1;ratioP1;P2;durP2;ratioP2
74523;SDS011;63074;44.696;10.358;2023-06-10T00:00:15;4.45;;;2.22;;
74523;SDS011;63074;44.696;10.358;2023-06-10T00:02:41;4.80;;;2.33;;
74523;SDS011;63074;44.696;10.358;2023-06-10T00:05:08;3.53;;;2.40;;
74523;SDS011;63074;44.696;10.358;2023-06-10T00:07:35;3.65;;;2.40;;
74523;SDS011;63074;44.696;10.358;2023-06-10T00:10:06;3.90;;;2.28;;
74523;SDS011;63074;44.696;10.358;2023-06-10T00:12:33;3.35;;;2.08;;
74523;SDS011;63074;44.696;10.358;2023-06-10T00:15:04;6.22;;;2.33;;
74523;SDS011;63074;44.696;10.358;2023-06-10T00:17:31;4.93;;;2.17;;
74523;SDS011;63074;44.696;10.358;2023-06-10T00:19:57;4.45;;;2.40;;
74523;SDS011;63074;44.696;10.358;2023-06-10T00:22:24;4.75;;;2.35;;
74523;SDS011;63074;44.696;10.358;2023-06-10T00:24:54;4.82;;;2.28;;
74523;SDS011;63074;44.696;10.358;2023-06-10T00:27:24;4.38;;;2.25;;
74523;SDS011;63074;44.696;10.358;2023-06-10T00:29:56;8.70;;;2.38;;
74523;SDS011;63074;44.696;10.358;2023-06-10T00:32:22;3.85;;;3.30;;
74523;SDS011;63074;44.696;10.358;2023-06-10T00:34:48;4.57;;;2.15;;
74523;SDS011;63074;44.696;10.358;2023-06-10T00:37:15;7.15;;;2.58;;
74523;SDS011;63074;44.696;10.358;2023-06-10T00:39:41;4.95;;;2.35;;
74523;SDS011;63074;44.696;10.358;2023-06-10T00:42:08;4.93;;;2.67;;
74523;SDS011;63074;44.696;10.358;2023-06-10T00:44:35;5.85;;;2.47;;
74523;SDS011;63074;44.696;10.358;2023-06-10T00:47:01;6.00;;;3.42;;
74523;SDS011;63074;44.696;10.358;2023-06-10T00:49:28;4.80;;;2.40;;
74523;SDS011;63074;44.696;10.358;2023-06-10T00:51:54;4.38;;;2.70;;
74523;SDS011;63074;44.696;10.358;2023-06-10T00:54:21;6.03;;;2.83;;
74523;SDS011;63074;44.696;10.358;2023-06-10T00:56:47;6.13;;;3.53;;
74523;SDS011;63074;44.696;10.358;2023-06-10T00:59:14;5.82;;;3.05;;
74523;SDS011;63074;44.696;10.358;2023-06-10T01:01:41;6.80;;;3.83;;
74523;SDS011;63074;44.696;10.358;2023-06-10T01:04:08;5.63;;;3.20;;
74523;SDS011;63074;44.696;10.358;2023-06-10T01:09:33;6.03;;;2.60;;
74523;SDS011;63074;44.696;10.358;2023-06-10T01:15:16;5.88;;;2.88;;
74523;SDS011;63074;44.696;10.358;2023-06-10T01:20:23;3.72;;;2.63;;
74523;SDS011;63074;44.696;10.358;2023-06-10T01:22:56;5.00;;;2.30;;
74523;SDS011;63074;44.696;10.358;2023-06-10T01:25:24;4.60;;;2.22;;
74523;SDS011;63074;44.696;10.358;2023-06-10T01:27:54;5.88;;;2.85;;
74523;SDS011;63074;44.696;10.358;2023-06-10T01:33:33;4.53;;;2.28;;
74523;SDS011;63074;44.696;10.358;2023-06-10T01:36:04;3.60;;;2.05;;
74523;SDS011;63074;44.696;10.358;2023-06-10T01:38:32;5.13;;;2.33;;
74523;SDS011;63074;44.696;10.358;2023-06-10T01:41:04;5.15;;;2.50;;
74523;SDS011;63074;44.696;10.358;2023-06-10T01:43:34;5.88;;;2.75;;
74523;SDS011;63074;44.696;10.358;2023-06-10T01:46:02;4.47;;;2.20;;
74523;SDS011;63074;44.696;10.358;2023-06-10T01:48:29;4.53;;;2.13;;
74523;SDS011;63074;44.696;10.358;2023-06-10T01:50:55;4.95;;;2.65;;
74523;SDS011;63074;44.696;10.358;2023-06-10T01:53:22;4.07;;;2.38;;
74523;SDS011;63074;44.696;10.358;2023-06-10T01:55:48;4.20;;;2.10;;
74523;SDS011;63074;44.696;10.358;2023-06-10T01:58:14;5.78;;;2.45;;
74523;SDS011;63074;44.696;10.358;2023-06-10T02:00:41;5.38;;;2.80;;
74523;SDS011;63074;44.696;10.358;2023-06-10T02:03:07;6.28;;;2.72;;
74523;SDS011;63074;44.696;10.358;2023-06-10T02:05:33;4.80;;;2.38;;
74523;SDS011;63074;44.696;10.358;2023-06-10T02:07:59;4.97;;;2.55;;
74523;SDS011;63074;44.696;10.358;2023-06-10T02:10:26;4.57;;;2.45;;
74523;SDS011;63074;44.696;10.358;2023-06-10T02:12:52;4.47;;;3.03;;
74523;SDS011;63074;44.696;10.358;2023-06-10T02:15:18;3.92;;;2.33;;
74523;SDS011;63074;44.696;10.358;2023-06-10T02:17:44;9.90;;;2.53;;
74523;SDS011;63074;44.696;10.358;2023-06-10T02:20:11;4.72;;;2.90;;
74523;SDS011;63074;44.696;10.358;2023-06-10T02:22:38;6.45;;;3.22;;
74523;SDS011;63074;44.696;10.358;2023-06-10T02:25:05;5.78;;;2.42;;
74523;SDS011;63074;44.696;10.358;2023-06-10T02:27:31;6.57;;;3.13;;
74523;SDS011;63074;44.696;10.358;2023-06-10T02:29:57;5.78;;;2.33;;
74523;SDS011;63074;44.696;10.358;2023-06-10T02:32:23;5.63;;;2.25;;
74523;SDS011;63074;44.696;10.358;2023-06-10T02:34:50;6.95;;;2.33;;
74523;SDS011;63074;44.696;10.358;2023-06-10T02:37:17;7.85;;;2.63;;
74523;SDS011;63074;44.696;10.358;2023-06-10T02:39:43;8.13;;;3.30;;
74523;SDS011;63074;44.696;10.358;2023-06-10T02:42:10;6.55;;;2.67;;
74523;SDS011;63074;44.696;10.358;2023-06-10T02:44:37;5.28;;;3.05;;
74523;SDS011;63074;44.696;10.358;2023-06-10T02:47:03;8.10;;;2.72;;
74523;SDS011;63074;44.696;10.358;2023-06-10T02:49:30;5.53;;;2.45;;
74523;SDS011;63074;44.696;10.358;2023-06-10T02:51:56;4.82;;;2.10;;
74523;SDS011;63074;44.696;10.358;2023-06-10T02:54:25;5.10;;;2.40;;
74523;SDS011;63074;44.696;10.358;2023-06-10T02:56:51;5.10;;;2.50;;
74523;SDS011;63074;44.696;10.358;2023-06-10T02:59:20;5.00;;;2.10;;
74523;SDS011;63074;44.696;10.358;2023-06-10T03:01:47;5.15;;;2.15;;
74523;SDS011;63074;44.696;10.358;2023-06-10T03:04:13;4.55;;;3.25;;
74523;SDS011;63074;44.696;10.358;2023-06-10T03:06:39;4.07;;;2.20;;
74523;SDS011;63074;44.696;10.358;2023-06-10T03:09:06;5.78;;;2.22;;
74523;SDS011;63074;44.696;10.358;2023-06-10T03:11:35;4.38;;;2.70;;
74523;SDS011;63074;44.696;10.358;2023-06-10T03:14:01;6.82;;;2.75;;
74523;SDS011;63074;44.696;10.358;2023-06-10T03:16:28;5.80;;;3.10;;
74523;SDS011;63074;44.696;10.358;2023-06-10T03:18:55;4.85;;;2.22;;
74523;SDS011;63074;44.696;10.358;2023-06-10T03:21:21;3.40;;;1.95;;
74523;SDS011;63074;44.696;10.358;2023-06-10T03:23:47;4.00;;;2.15;;
74523;SDS011;63074;44.696;10.358;2023-06-10T03:26:14;5.90;;;2.45;;
74523;SDS011;63074;44.696;10.358;2023-06-10T03:28:40;5.63;;;2.67;;
74523;SDS011;63074;44.696;10.358;2023-06-10T03:31:07;4.82;;;2.33;;
74523;SDS011;63074;44.696;10.358;2023-06-10T03:33:33;3.70;;;2.63;;
74523;SDS011;63074;44.696;10.358;2023-06-10T03:36:00;6.10;;;2.63;;
74523;SDS011;63074;44.696;10.358;2023-06-10T03:38:27;6.43;;;2.67;;
74523;SDS011;63074;44.696;10.358;2023-06-10T03:40:53;5.82;;;3.10;;
74523;SDS011;63074;44.696;10.358;2023-06-10T03:43:19;4.05;;;2.47;;
74523;SDS011;63074;44.696;10.358;2023-06-10T03:45:46;6.20;;;3.17;;
74523;SDS011;63074;44.696;10.358;2023-06-10T03:48:14;5.28;;;3.00;;
74523;SDS011;63074;44.696;10.358;2023-06-10T03:50:40;6.25;;;3.00;;
74523;SDS011;63074;44.696;10.358;2023-06-10T03:53:06;4.43;;;3.35;;
74523;SDS011;63074;44.696;10.358;2023-06-10T03:55:33;7.95;;;3.25;;
74523;SDS011;63074;44.696;10.358;2023-06-10T03:57:59;6.55;;;3.00;;
74523;SDS011;63074;44.696;10.358;2023-06-10T04:00:25;7.68;;;4.10;;
74523;SDS011;63074;44.696;10.358;2023-06-10T04:02:51;5.75;;;3.55;;
74523;SDS011;63074;44.696;10.358;2023-06-10T04:05:18;7.00;;;3.50;;
74523;SDS011;63074;44.696;10.358;2023-06-10T04:07:47;7.10;;;3.50;;
74523;SDS011;63074;44.696;10.358;2023-06-10T04:10:14;6.57;;;4.75;;
74523;SDS011;63074;44.696;10.358;2023-06-10T04:12:41;6.72;;;3.85;;
74523;SDS011;63074;44.696;10.358;2023-06-10T04:15:09;6.03;;;4.32;;
74523;SDS011;63074;44.696;10.358;2023-06-10T04:17:35;7.40;;;4.25;;
74523;SDS011;63074;44.696;10.358;2023-06-10T04:20:02;7.82;;;4.63;;
74523;SDS011;63074;44.696;10.358;2023-06-10T04:24:57;7.90;;;4.60;;
74523;SDS011;63074;44.696;10.358;2023-06-10T04:27:24;7.05;;;3.90;;
74523;SDS011;63074;44.696;10.358;2023-06-10T04:29:50;5.85;;;4.13;;
74523;SDS011;63074;44.696;10.358;2023-06-10T04:32:16;6.93;;;4.45;;
74523;SDS011;63074;44.696;10.358;2023-06-10T04:34:42;6.97;;;4.22;;
74523;SDS011;63074;44.696;10.358;2023-06-10T04:37:08;6.57;;;4.47;;
74523;SDS011;63074;44.696;10.358;2023-06-10T04:39:34;6.63;;;3.67;;
74523;SDS011;63074;44.696;10.358;2023-06-10T04:42:01;7.40;;;4.03;;
74523;SDS011;63074;44.696;10.358;2023-06-10T04:44:27;10.02;;;4.07;;
74523;SDS011;63074;44.696;10.358;2023-06-10T04:46:54;7.20;;;3.88;;
74523;SDS011;63074;44.696;10.358;2023-06-10T04:49:20;6.20;;;4.20;;
74523;SDS011;63074;44.696;10.358;2023-06-10T04:51:47;6.65;;;3.92;;
74523;SDS011;63074;44.696;10.358;2023-06-10T04:54:13;6.78;;;3.72;;
74523;SDS011;63074;44.696;10.358;2023-06-10T04:56:39;7.13;;;3.80;;
74523;SDS011;63074;44.696;10.358;2023-06-10T04:59:05;7.97;;;3.38;;
74523;SDS011;63074;44.696;10.358;2023-06-10T05:01:31;6.07;;;2.92;;
74523;SDS011;63074;44.696;10.358;2023-06-10T05:03:57;5.63;;;3.03;;
74523;SDS011;63074;44.696;10.358;2023-06-10T05:06:24;6.55;;;2.90;;
74523;SDS011;63074;44.696;10.358;2023-06-10T05:08:50;6.78;;;3.15;;
74523;SDS011;63074;44.696;10.358;2023-06-10T05:11:16;4.68;;;2.40;;
74523;SDS011;63074;44.696;10.358;2023-06-10T05:13:42;4.60;;;2.10;;
74523;SDS011;63074;44.696;10.358;2023-06-10T05:16:09;4.50;;;2.45;;
74523;SDS011;63074;44.696;10.358;2023-06-10T05:18:35;5.05;;;2.53;;
74523;SDS011;63074;44.696;10.358;2023-06-10T05:21:02;5.65;;;2.40;;
74523;SDS011;63074;44.696;10.358;2023-06-10T05:23:28;4.03;;;2.28;;
74523;SDS011;63074;44.696;10.358;2023-06-10T05:25:54;4.63;;;2.38;;
74523;SDS011;63074;44.696;10.358;2023-06-10T05:28:20;4.28;;;2.35;;
74523;SDS011;63074;44.696;10.358;2023-06-10T05:30:46;4.90;;;2.05;;
74523;SDS011;63074;44.696;10.358;2023-06-10T05:33:12;7.45;;;1.83;;
74523;SDS011;63074;44.696;10.358;2023-06-10T05:35:39;4.72;;;1.95;;
74523;SDS011;63074;44.696;10.358;2023-06-10T05:38:05;3.22;;;1.73;;
74523;SDS011;63074;44.696;10.358;2023-06-10T05:40:32;4.03;;;1.80;;
74523;SDS011;63074;44.696;10.358;2023-06-10T05:42:58;5.10;;;1.85;;
74523;SDS011;63074;44.696;10.358;2023-06-10T05:45:24;3.47;;;1.77;;
74523;SDS011;63074;44.696;10.358;2023-06-10T05:47:52;3.35;;;1.75;;
74523;SDS011;63074;44.696;10.358;2023-06-10T05:50:18;5.15;;;1.90;;
74523;SDS011;63074;44.696;10.358;2023-06-10T05:52:44;4.88;;;2.15;;
74523;SDS011;63074;44.696;10.358;2023-06-10T05:55:11;4.43;;;1.77;;
74523;SDS011;63074;44.696;10.358;2023-06-10T05:57:37;5.22;;;1.63;;
74523;SDS011;63074;44.696;10.358;2023-06-10T06:00:03;6.43;;;1.52;;
74523;SDS011;63074;44.696;10.358;2023-06-10T06:02:30;2.75;;;1.85;;
74523;SDS011;63074;44.696;10.358;2023-06-10T06:04:56;5.68;;;2.05;;
74523;SDS011;63074;44.696;10.358;2023-06-10T06:07:22;3.00;;;1.52;;
74523;SDS011;63074;44.696;10.358;2023-06-10T06:09:48;3.50;;;1.80;;
74523;SDS011;63074;44.696;10.358;2023-06-10T06:12:14;4.05;;;1.98;;
74523;SDS011;63074;44.696;10.358;2023-06-10T06:14:41;3.33;;;1.67;;
74523;SDS011;63074;44.696;10.358;2023-06-10T06:17:07;4.32;;;1.45;;
74523;SDS011;63074;44.696;10.358;2023-06-10T06:19:33;5.75;;;2.05;;
74523;SDS011;63074;44.696;10.358;2023-06-10T06:22:00;6.25;;;2.15;;
74523;SDS011;63074;44.696;10.358;2023-06-10T06:24:26;7.82;;;2.10;;
74523;SDS011;63074;44.696;10.358;2023-06-10T06:26:52;3.83;;;1.45;;
74523;SDS011;63074;44.696;10.358;2023-06-10T06:29:18;7.15;;;1.73;;
74523;SDS011;63074;44.696;10.358;2023-06-10T06:31:44;3.03;;;1.20;;
74523;SDS011;63074;44.696;10.358;2023-06-10T06:34:11;3.53;;;1.92;;
74523;SDS011;63074;44.696;10.358;2023-06-10T06:36:37;5.18;;;1.98;;
74523;SDS011;63074;44.696;10.358;2023-06-10T06:39:03;4.90;;;1.60;;
74523;SDS011;63074;44.696;10.358;2023-06-10T06:41:29;3.65;;;1.67;;
74523;SDS011;63074;44.696;10.358;2023-06-10T06:43:55;3.58;;;1.95;;
74523;SDS011;63074;44.696;10.358;2023-06-10T06:46:22;4.00;;;1.73;;
74523;SDS011;63074;44.696;10.358;2023-06-10T06:48:48;5.70;;;2.83;;
74523;SDS011;63074;44.696;10.358;2023-06-10T06:51:15;5.13;;;2.25;;
74523;SDS011;63074;44.696;10.358;2023-06-10T06:53:41;4.78;;;2.28;;
74523;SDS011;63074;44.696;10.358;2023-06-10T06:56:12;7.35;;;2.53;;
74523;SDS011;63074;44.696;10.358;2023-06-10T06:58:39;3.72;;;2.10;;
74523;SDS011;63074;44.696;10.358;2023-06-10T07:01:06;4.47;;;1.98;;
74523;SDS011;63074;44.696;10.358;2023-06-10T07:03:32;3.63;;;2.72;;
74523;SDS011;63074;44.696;10.358;2023-06-10T07:05:58;5.05;;;2.15;;
74523;SDS011;63074;44.696;10.358;2023-06-10T07:08:25;3.80;;;1.95;;
74523;SDS011;63074;44.696;10.358;2023-06-10T07:10:51;3.58;;;1.60;;
74523;SDS011;63074;44.696;10.358;2023-06-10T07:13:17;3.25;;;1.70;;
74523;SDS011;63074;44.696;10.358;2023-06-10T07:15:43;3.97;;;1.95;;
74523;SDS011;63074;44.696;10.358;2023-06-10T07:18:09;3.75;;;2.25;;
74523;SDS011;63074;44.696;10.358;2023-06-10T07:20:35;4.07;;;2.67;;
74523;SDS011;63074;44.696;10.358;2023-06-10T07:23:02;5.78;;;3.13;;
74523;SDS011;63074;44.696;10.358;2023-06-10T07:28:51;4.93;;;2.40;;
74523;SDS011;63074;44.696;10.358;2023-06-10T07:31:17;5.80;;;3.20;;
74523;SDS011;63074;44.696;10.358;2023-06-10T07:33:43;5.95;;;2.80;;
74523;SDS011;63074;44.696;10.358;2023-06-10T07:36:09;4.45;;;2.95;;
74523;SDS011;63074;44.696;10.358;2023-06-10T07:38:35;4.60;;;2.42;;
74523;SDS011;63074;44.696;10.358;2023-06-10T07:41:02;4.97;;;2.17;;
74523;SDS011;63074;44.696;10.358;2023-06-10T07:43:29;3.53;;;1.83;;
74523;SDS011;63074;44.696;10.358;2023-06-10T07:45:55;4.15;;;2.15;;
74523;SDS011;63074;44.696;10.358;2023-06-10T07:48:21;3.38;;;1.75;;
74523;SDS011;63074;44.696;10.358;2023-06-10T07:50:47;3.03;;;1.83;;
74523;SDS011;63074;44.696;10.358;2023-06-10T07:53:14;4.63;;;2.35;;
74523;SDS011;63074;44.696;10.358;2023-06-10T07:55:40;4.15;;;1.90;;
74523;SDS011;63074;44.696;10.358;2023-06-10T07:58:06;4.45;;;2.20;;
74523;SDS011;63074;44.696;10.358;2023-06-10T08:00:32;3.83;;;2.13;;
74523;SDS011;63074;44.696;10.358;2023-06-10T08:02:58;4.85;;;2.35;;
74523;SDS011;63074;44.696;10.358;2023-06-10T08:05:25;4.05;;;2.35;;
74523;SDS011;63074;44.696;10.358;2023-06-10T08:07:51;6.60;;;2.85;;
74523;SDS011;63074;44.696;10.358;2023-06-10T08:10:17;5.32;;;2.88;;
74523;SDS011;63074;44.696;10.358;2023-06-10T08:12:43;5.47;;;2.95;;
74523;SDS011;63074;44.696;10.358;2023-06-10T08:15:10;5.13;;;2.63;;
74523;SDS011;63074;44.696;10.358;2023-06-10T08:17:37;3.42;;;1.80;;
74523;SDS011;63074;44.696;10.358;2023-06-10T08:20:04;4.50;;;1.90;;
74523;SDS011;63074;44.696;10.358;2023-06-10T08:22:31;3.03;;;1.42;;
74523;SDS011;63074;44.696;10.358;2023-06-10T08:24:58;3.28;;;2.17;;
74523;SDS011;63074;44.696;10.358;2023-06-10T08:27:24;4.15;;;3.00;;
74523;SDS011;63074;44.696;10.358;2023-06-10T08:29:51;5.30;;;1.88;;
74523;SDS011;63074;44.696;10.358;2023-06-10T08:32:17;6.53;;;2.60;;
74523;SDS011;63074;44.696;10.358;2023-06-10T08:34:43;4.68;;;2.03;;
74523;SDS011;63074;44.696;10.358;2023-06-10T08:37:09;4.38;;;2.53;;
74523;SDS011;63074;44.696;10.358;2023-06-10T08:39:35;4.93;;;2.60;;
74523;SDS011;63074;44.696;10.358;2023-06-10T08:44:32;4.50;;;2.13;;
74523;SDS011;63074;44.696;10.358;2023-06-10T08:47:03;4.30;;;2.25;;
74523;SDS011;63074;44.696;10.358;2023-06-10T08:49:34;3.75;;;2.40;;
74523;SDS011;63074;44.696;10.358;2023-06-10T08:52:06;4.78;;;2.75;;
74523;SDS011;63074;44.696;10.358;2023-06-10T08:54:36;5.85;;;2.92;;
74523;SDS011;63074;44.696;10.358;2023-06-10T08:57:07;4.70;;;2.15;;
74523;SDS011;63074;44.696;10.358;2023-06-10T08:59:34;4.05;;;1.85;;
74523;SDS011;63074;44.696;10.358;2023-06-10T09:02:01;4.57;;;2.42;;
74523;SDS011;63074;44.696;10.358;2023-06-10T09:04:29;5.13;;;3.35;;
74523;SDS011;63074;44.696;10.358;2023-06-10T09:06:55;5.32;;;2.75;;
74523;SDS011;63074;44.696;10.358;2023-06-10T09:09:22;4.28;;;2.38;;
74523;SDS011;63074;44.696;10.358;2023-06-10T09:11:51;4.85;;;2.28;;
74523;SDS011;63074;44.696;10.358;2023-06-10T09:14:17;4.15;;;2.00;;
74523;SDS011;63074;44.696;10.358;2023-06-10T09:16:43;3.55;;;2.65;;
74523;SDS011;63074;44.696;10.358;2023-06-10T09:19:11;4.65;;;2.28;;
74523;SDS011;63074;44.696;10.358;2023-06-10T09:21:38;5.18;;;3.00;;
74523;SDS011;63074;44.696;10.358;2023-06-10T09:24:05;5.05;;;3.00;;
74523;SDS011;63074;44.696;10.358;2023-06-10T09:26:31;6.40;;;3.13;;
74523;SDS011;63074;44.696;10.358;2023-06-10T09:29:02;5.30;;;2.92;;
74523;SDS011;63074;44.696;10.358;2023-06-10T09:31:30;5.25;;;2.92;;
74523;SDS011;63074;44.696;10.358;2023-06-10T09:34:06;4.35;;;3.10;;
74523;SDS011;63074;44.696;10.358;2023-06-10T09:36:36;6.85;;;3.28;;
74523;SDS011;63074;44.696;10.358;2023-06-10T09:39:03;5.57;;;2.40;;
74523;SDS011;63074;44.696;10.358;2023-06-10T09:41:40;4.78;;;2.58;;
74523;SDS011;63074;44.696;10.358;2023-06-10T09:44:13;5.20;;;2.92;;
74523;SDS011;63074;44.696;10.358;2023-06-10T09:46:46;5.75;;;2.97;;
74523;SDS011;63074;44.696;10.358;2023-06-10T09:49:18;6.50;;;3.80;;
74523;SDS011;63074;44.696;10.358;2023-06-10T09:51:51;7.07;;;3.92;;
74523;SDS011;63074;44.696;10.358;2023-06-10T09:54:19;5.05;;;3.67;;
74523;SDS011;63074;44.696;10.358;2023-06-10T09:56:46;6.90;;;3.53;;
74523;SDS011;63074;44.696;10.358;2023-06-10T09:59:13;7.65;;;4.22;;
74523;SDS011;63074;44.696;10.358;2023-06-10T10:01:41;6.63;;;3.38;;
74523;SDS011;63074;44.696;10.358;2023-06-10T10:04:07;7.03;;;3.78;;
74523;SDS011;63074;44.696;10.358;2023-06-10T10:06:33;6.78;;;4.25;;
74523;SDS011;63074;44.696;10.358;2023-06-10T10:09:00;7.65;;;4.43;;
74523;SDS011;63074;44.696;10.358;2023-06-10T10:11:28;7.57;;;4.10;;
74523;SDS011;63074;44.696;10.358;2023-06-10T10:13:57;8.88;;;4.72;;
74523;SDS011;63074;44.696;10.358;2023-06-10T10:16:32;9.27;;;5.47;;
74523;SDS011;63074;44.696;10.358;2023-06-10T10:19:07;9.60;;;5.10;;
74523;SDS011;63074;44.696;10.358;2023-06-10T10:21:45;6.63;;;4.38;;
74523;SDS011;63074;44.696;10.358;2023-06-10T10:24:30;8.90;;;5.45;;
74523;SDS011;63074;44.696;10.358;2023-06-10T10:27:01;9.02;;;4.20;;
74523;SDS011;63074;44.696;10.358;2023-06-10T10:29:37;7.05;;;4.75;;
74523;SDS011;63074;44.696;10.358;2023-06-10T10:37:06;8.93;;;5.35;;
74523;SDS011;63074;44.696;10.358;2023-06-10T10:39:33;8.57;;;5.15;;
74523;SDS011;63074;44.696;10.358;2023-06-10T10:42:01;8.88;;;5.30;;
74523;SDS011;63074;44.696;10.358;2023-06-10T10:44:29;7.60;;;4.80;;
74523;SDS011;63074;44.696;10.358;2023-06-10T10:46:56;8.85;;;5.28;;
74523;SDS011;63074;44.696;10.358;2023-06-10T10:52:53;6.43;;;3.97;;
74523;SDS011;63074;44.696;10.358;2023-06-10T10:55:24;6.65;;;3.95;;
74523;SDS011;63074;44.696;10.358;2023-06-10T10:57:55;7.78;;;4.38;;
74523;SDS011;63074;44.696;10.358;2023-06-10T11:00:31;7.32;;;4.55;;
74523;SDS011;63074;44.696;10.358;2023-06-10T11:05:35;9.27;;;5.47;;
74523;SDS011;63074;44.696;10.358;2023-06-10T11:08:03;6.93;;;3.95;;
74523;SDS011;63074;44.696;10.358;2023-06-10T11:13:20;7.22;;;3.78;;
74523;SDS011;63074;44.696;10.358;2023-06-10T11:15:48;7.88;;;4.32;;
74523;SDS011;63074;44.696;10.358;2023-06-10T11:18:30;6.90;;;3.72;;
74523;SDS011;63074;44.696;10.358;2023-06-10T11:21:04;6.70;;;4.22;;
74523;SDS011;63074;44.696;10.358;2023-06-10T11:23:32;6.03;;;4.32;;
74523;SDS011;63074;44.696;10.358;2023-06-10T11:26:09;10.25;;;4.97;;
74523;SDS011;63074;44.696;10.358;2023-06-10T11:31:24;8.70;;;5.20;;
74523;SDS011;63074;44.696;10.358;2023-06-10T11:33:55;9.85;;;5.15;;
74523;SDS011;63074;44.696;10.358;2023-06-10T11:36:26;8.93;;;4.63;;
74523;SDS011;63074;44.696;10.358;2023-06-10T11:38:55;9.48;;;4.72;;
74523;SDS011;63074;44.696;10.358;2023-06-10T11:41:29;8.60;;;5.07;;
74523;SDS011;63074;44.696;10.358;2023-06-10T11:43:59;8.90;;;5.30;;
74523;SDS011;63074;44.696;10.358;2023-06-10T11:46:28;7.72;;;4.70;;
74523;SDS011;63074;44.696;10.358;2023-06-10T11:48:55;9.13;;;4.43;;
74523;SDS011;63074;44.696;10.358;2023-06-10T11:51:27;10.53;;;5.77;;
74523;SDS011;63074;44.696;10.358;2023-06-10T11:53:55;9.63;;;4.90;;
74523;SDS011;63074;44.696;10.358;2023-06-10T11:56:24;7.75;;;4.65;;
74523;SDS011;63074;44.696;10.358;2023-06-10T11:58:59;8.65;;;5.28;;
74523;SDS011;63074;44.696;10.358;2023-06-10T12:01:31;8.20;;;5.13;;
74523;SDS011;63074;44.696;10.358;2023-06-10T12:04:02;9.15;;;4.95;;
74523;SDS011;63074;44.696;10.358;2023-06-10T12:06:46;8.10;;;5.28;;
74523;SDS011;63074;44.696;10.358;2023-06-10T12:09:23;9.93;;;5.78;;
74523;SDS011;63074;44.696;10.358;2023-06-10T12:11:58;9.35;;;5.10;;
74523;SDS011;63074;44.696;10.358;2023-06-10T12:20:03;9.77;;;6.10;;
74523;SDS011;63074;44.696;10.358;2023-06-10T12:22:37;9.98;;;6.03;;
74523;SDS011;63074;44.696;10.358;2023-06-10T12:25:07;10.82;;;4.80;;
74523;SDS011;63074;44.696;10.358;2023-06-10T12:27:35;8.73;;;5.72;;
74523;SDS011;63074;44.696;10.358;2023-06-10T12:30:02;9.55;;;5.35;;
74523;SDS011;63074;44.696;10.358;2023-06-10T12:32:44;9.40;;;5.10;;
74523;SDS011;63074;44.696;10.358;2023-06-10T12:35:12;8.15;;;4.95;;
74523;SDS011;63074;44.696;10.358;2023-06-10T12:37:42;8.20;;;4.90;;
74523;SDS011;63074;44.696;10.358;2023-06-10T12:40:25;9.38;;;5.07;;
74523;SDS011;63074;44.696;10.358;2023-06-10T12:42:56;8.30;;;4.82;;
74523;SDS011;63074;44.696;10.358;2023-06-10T12:45:27;9.25;;;4.63;;
74523;SDS011;63074;44.696;10.358;2023-06-10T12:50:53;10.80;;;5.30;;
74523;SDS011;63074;44.696;10.358;2023-06-10T12:53:20;8.82;;;4.30;;
74523;SDS011;63074;44.696;10.358;2023-06-10T12:55:48;5.93;;;3.63;;
74523;SDS011;63074;44.696;10.358;2023-06-10T12:58:21;7.57;;;4.68;;
74523;SDS011;63074;44.696;10.358;2023-06-10T13:00:48;10.23;;;4.28;;
74523;SDS011;63074;44.696;10.358;2023-06-10T13:03:17;5.70;;;4.10;;
74523;SDS011;63074;44.696;10.358;2023-06-10T13:05:43;6.35;;;4.30;;
74523;SDS011;63074;44.696;10.358;2023-06-10T13:08:09;6.32;;;3.97;;
74523;SDS011;63074;44.696;10.358;2023-06-10T13:10:36;5.97;;;4.22;;
74523;SDS011;63074;44.696;10.358;2023-06-10T13:13:03;6.90;;;4.25;;
74523;SDS011;63074;44.696;10.358;2023-06-10T13:15:33;9.57;;;4.53;;
74523;SDS011;63074;44.696;10.358;2023-06-10T13:18:04;7.50;;;3.80;;
74523;SDS011;63074;44.696;10.358;2023-06-10T13:20:30;6.43;;;3.72;;
74523;SDS011;63074;44.696;10.358;2023-06-10T13:22:57;9.43;;;4.68;;
74523;SDS011;63074;44.696;10.358;2023-06-10T13:25:23;5.28;;;3.35;;
74523;SDS011;63074;44.696;10.358;2023-06-10T13:27:50;8.40;;;4.28;;
74523;SDS011;63074;44.696;10.358;2023-06-10T13:30:16;7.97;;;3.90;;
74523;SDS011;63074;44.696;10.358;2023-06-10T13:32:42;6.75;;;3.70;;
74523;SDS011;63074;44.696;10.358;2023-06-10T13:35:08;7.95;;;3.90;;
74523;SDS011;63074;44.696;10.358;2023-06-10T13:37:34;5.88;;;3.35;;
74523;SDS011;63074;44.696;10.358;2023-06-10T13:40:01;6.20;;;3.63;;
74523;SDS011;63074;44.696;10.358;2023-06-10T13:42:28;6.95;;;3.95;;
74523;SDS011;63074;44.696;10.358;2023-06-10T13:44:55;7.57;;;3.85;;
74523;SDS011;63074;44.696;10.358;2023-06-10T13:47:24;6.07;;;3.08;;
74523;SDS011;63074;44.696;10.358;2023-06-10T13:49:50;5.75;;;3.08;;
74523;SDS011;63074;44.696;10.358;2023-06-10T13:52:16;5.82;;;3.35;;
74523;SDS011;63074;44.696;10.358;2023-06-10T13:54:43;5.38;;;3.40;;
74523;SDS011;63074;44.696;10.358;2023-06-10T13:57:09;6.53;;;4.20;;
74523;SDS011;63074;44.696;10.358;2023-06-10T13:59:36;5.18;;;3.35;;
74523;SDS011;63074;44.696;10.358;2023-06-10T14:02:02;5.40;;;3.25;;
74523;SDS011;63074;44.696;10.358;2023-06-10T14:04:28;4.88;;;3.33;;
74523;SDS011;63074;44.696;10.358;2023-06-10T14:06:55;5.60;;;3.55;;
74523;SDS011;63074;44.696;10.358;2023-06-10T14:09:22;5.53;;;3.70;;
74523;SDS011;63074;44.696;10.358;2023-06-10T14:11:48;8.00;;;3.50;;
74523;SDS011;63074;44.696;10.358;2023-06-10T14:14:14;5.47;;;3.38;;
74523;SDS011;63074;44.696;10.358;2023-06-10T14:16:41;5.05;;;3.20;;
74523;SDS011;63074;44.696;10.358;2023-06-10T14:19:07;5.43;;;4.03;;
74523;SDS011;63074;44.696;10.358;2023-06-10T14:21:33;6.75;;;3.47;;
74523;SDS011;63074;44.696;10.358;2023-06-10T14:23:59;4.50;;;2.85;;
74523;SDS011;63074;44.696;10.358;2023-06-10T14:26:25;6.35;;;3.33;;
74523;SDS011;63074;44.696;10.358;2023-06-10T14:28:52;5.95;;;3.22;;
74523;SDS011;63074;44.696;10.358;2023-06-10T14:31:18;7.00;;;3.58;;
74523;SDS011;63074;44.696;10.358;2023-06-10T14:33:44;4.80;;;2.92;;
74523;SDS011;63074;44.696;10.358;2023-06-10T14:36:10;5.32;;;3.22;;
74523;SDS011;63074;44.696;10.358;2023-06-10T14:38:37;6.72;;;3.63;;
74523;SDS011;63074;44.696;10.358;2023-06-10T14:41:03;5.50;;;3.47;;
74523;SDS011;63074;44.696;10.358;2023-06-10T14:43:29;6.40;;;3.42;;
74523;SDS011;63074;44.696;10.358;2023-06-10T14:45:55;8.02;;;4.20;;
74523;SDS011;63074;44.696;10.358;2023-06-10T14:48:22;6.60;;;3.85;;
74523;SDS011;63074;44.696;10.358;2023-06-10T14:50:48;7.28;;;3.70;;
74523;SDS011;63074;44.696;10.358;2023-06-10T14:55:43;7.75;;;5.47;;
74523;SDS011;63074;44.696;10.358;2023-06-10T14:58:10;9.20;;;5.10;;
74523;SDS011;63074;44.696;10.358;2023-06-10T15:00:36;8.68;;;4.85;;
74523;SDS011;63074;44.696;10.358;2023-06-10T15:03:02;8.23;;;4.63;;
74523;SDS011;63074;44.696;10.358;2023-06-10T15:05:28;7.15;;;5.00;;
74523;SDS011;63074;44.696;10.358;2023-06-10T15:07:55;9.50;;;5.15;;
74523;SDS011;63074;44.696;10.358;2023-06-10T15:10:21;8.63;;;5.38;;
74523;SDS011;63074;44.696;10.358;2023-06-10T15:12:47;9.68;;;4.88;;
74523;SDS011;63074;44.696;10.358;2023-06-10T15:15:20;8.18;;;5.72;;
74523;SDS011;63074;44.696;10.358;2023-06-10T15:17:52;9.02;;;5.38;;
74523;SDS011;63074;44.696;10.358;2023-06-10T15:20:19;7.93;;;5.35;;
74523;SDS011;63074;44.696;10.358;2023-06-10T15:22:45;9.18;;;6.28;;